Terminal Aerodrome Forecast
Issued by NWS

Home | Current Version | Previous Version | Text Only | Print | Product List | Glossary On
Versions: 1 2 3 4 5 6 7 8 9 10 11 12 13 14 15 16
042
FTUS41 KAKQ 081739
TAFPHF
TAF
KPHF 081739Z 0818/0918 11005KT P6SM BKN250
     FM082300 14006KT P6SM OVC090
     FM090200 12005KT 5SM -RA BR SCT012 BKN020
     FM090600 22005KT P6SM BKN015
     FM091200 26008KT P6SM SCT015 SCT080
     FM091600 27011KT P6SM BKN035=

USA.gov is the U.S. government's official web portal to all federal, state and local government web resources and services.